Time;durP1;ratioP1;P1;durP2;ratioP2;P2;SDS_P1;SDS_P2;PMS_P1;PMS_P2;Temp;Humidity;BMP_temperature;BMP_pressure;BME280_temperature;BME280_humidity;BME280_pressure;Samples;Min_cycle;Max_cycle;Signal;HPM_P1;HPM_P2
2023/05/01 00:02:17;;;;;;;7.22;5.68;;;;;;;13.18;52.64;94946.59;5025573;28;20024;-73
2023/05/01 00:04:43;;;;;;;7.63;5.45;;;;;;;13.06;52.73;94944.69;5027917;28;20029;-73
2023/05/01 00:07:08;;;;;;;8.68;5.45;;;;;;;13.04;52.91;94945.16;5027262;28;20029;-74
2023/05/01 00:09:34;;;;;;;6.47;5.25;;;;;;;12.97;52.96;94950.94;5028113;28;20548;-74
2023/05/01 00:12:01;;;;;;;7.85;5.90;;;;;;;12.93;53.15;94950.31;5025841;28;20406;-75
2023/05/01 00:14:27;;;;;;;7.38;6.45;;;;;;;12.92;53.22;94946.03;5010012;28;20082;-74
2023/05/01 00:16:52;;;;;;;6.07;5.25;;;;;;;12.90;53.24;94945.69;5027186;28;20021;-74
2023/05/01 00:19:18;;;;;;;6.80;6.07;;;;;;;12.85;53.40;94949.81;5027240;28;20022;-74
2023/05/01 00:21:47;;;;;;;8.27;6.00;;;;;;;12.75;53.70;94939.94;5027724;28;20029;-74
2023/05/01 00:24:15;;;;;;;7.15;5.43;;;;;;;12.74;53.92;94941.16;5025456;28;20039;-74
2023/05/01 00:26:41;;;;;;;7.88;5.75;;;;;;;12.70;53.96;94946.81;5027565;28;20026;-72
2023/05/01 00:29:06;;;;;;;6.40;5.50;;;;;;;12.72;53.95;94940.84;5027046;28;20179;-74
2023/05/01 00:31:32;;;;;;;7.60;5.40;;;;;;;12.68;54.02;94949.25;5027119;28;20064;-75
2023/05/01 00:33:57;;;;;;;7.93;5.32;;;;;;;12.67;54.39;94950.47;5026821;28;20405;-73
2023/05/01 00:36:23;;;;;;;7.38;5.78;;;;;;;12.64;54.48;94948.59;5027232;28;20029;-75
2023/05/01 00:38:48;;;;;;;6.65;5.20;;;;;;;12.61;54.23;94945.97;5027721;28;20407;-74
2023/05/01 00:41:13;;;;;;;6.53;5.55;;;;;;;12.61;54.61;94952.25;5028235;28;20035;-74
2023/05/01 00:43:39;;;;;;;6.88;5.93;;;;;;;12.59;54.93;94957.47;5027265;28;20021;-74
2023/05/01 00:46:05;;;;;;;7.65;5.88;;;;;;;12.57;54.69;94962.66;5026870;28;20026;-74
2023/05/01 00:48:30;;;;;;;6.65;5.43;;;;;;;12.56;54.70;94963.88;5027405;28;20513;-74
2023/05/01 00:50:57;;;;;;;6.75;5.32;;;;;;;12.52;54.81;94971.50;5024325;28;20025;-74
2023/05/01 00:53:23;;;;;;;5.60;5.05;;;;;;;12.47;54.58;94964.56;5025557;28;20036;-74
2023/05/01 00:55:49;;;;;;;6.75;5.72;;;;;;;12.47;54.60;94969.31;5026617;28;20540;-73
2023/05/01 00:58:16;;;;;;;7.80;5.43;;;;;;;12.44;54.46;94976.50;5025974;28;20053;-73
2023/05/01 01:00:42;;;;;;;5.80;5.20;;;;;;;12.38;54.54;94975.53;5027092;28;20198;-73
2023/05/01 01:03:07;;;;;;;6.47;5.38;;;;;;;12.34;54.59;94971.38;5025426;28;20527;-74
2023/05/01 01:05:39;;;;;;;6.15;5.43;;;;;;;12.29;54.71;94974.69;5027007;28;20550;-74
2023/05/01 01:08:17;;;;;;;5.72;5.07;;;;;;;12.23;54.97;94985.53;5025054;28;20021;-73
2023/05/01 01:10:51;;;;;;;6.70;5.28;;;;;;;12.18;55.24;94980.56;5025091;28;20052;-73
2023/05/01 01:13:26;;;;;;;7.80;5.68;;;;;;;12.13;55.27;94978.38;5025000;28;20029;-74
2023/05/01 01:16:03;;;;;;;5.90;5.30;;;;;;;11.91;55.95;94976.34;5024314;28;20049;-74
2023/05/01 01:18:36;;;;;;;8.80;5.43;;;;;;;11.92;55.64;94974.34;5008488;28;20495;-73
2023/05/01 01:21:14;;;;;;;5.35;4.85;;;;;;;11.90;55.95;94974.03;5024126;28;20076;-74
2023/05/01 01:23:59;;;;;;;7.13;5.72;;;;;;;11.88;55.90;94973.72;5025345;28;20040;-73
2023/05/01 01:26:43;;;;;;;6.70;5.20;;;;;;;11.86;55.89;94982.41;5026354;28;20032;-73
2023/05/01 01:29:30;;;;;;;7.55;6.38;;;;;;;11.84;55.90;94986.84;5025606;28;20116;-74
2023/05/01 01:32:33;;;;;;;5.95;5.20;;;;;;;11.80;55.93;94997.94;5024783;28;20029;-73
2023/05/01 01:35:07;;;;;;;7.18;5.65;;;;;;;11.74;56.71;95001.69;5028324;28;20025;-74
2023/05/01 01:38:03;;;;;;;7.10;5.55;;;;;;;11.72;56.39;95004.13;5024076;28;20021;-74
2023/05/01 01:40:34;;;;;;;6.95;5.97;;;;;;;11.64;56.41;94996.09;5026453;28;20044;-74
2023/05/01 01:43:06;;;;;;;8.65;5.93;;;;;;;11.59;56.42;94982.13;5023914;28;20029;-73
2023/05/01 01:45:42;;;;;;;8.05;5.30;;;;;;;11.55;56.29;94986.94;5008245;28;20537;-73
2023/05/01 01:48:11;;;;;;;8.73;5.85;;;;;;;11.48;56.52;94990.72;5024527;28;20025;-74
2023/05/01 01:50:37;;;;;;;7.00;5.72;;;;;;;11.46;56.72;94990.34;5023858;28;20029;-74
2023/05/01 01:53:04;;;;;;;7.82;6.22;;;;;;;11.44;56.46;94988.06;5024532;28;20037;-74
2023/05/01 01:55:32;;;;;;;8.10;5.63;;;;;;;11.40;56.52;94992.13;5023840;28;20063;-74
2023/05/01 01:57:58;;;;;;;7.07;5.63;;;;;;;11.38;56.61;94986.31;5024395;28;20506;-74
2023/05/01 02:00:24;;;;;;;6.43;5.50;;;;;;;11.37;56.71;94982.00;5023505;28;20037;-74
2023/05/01 02:02:50;;;;;;;7.55;5.80;;;;;;;11.33;56.64;94984.09;5023501;28;20105;-75
2023/05/01 02:05:17;;;;;;;6.97;5.93;;;;;;;11.25;57.23;94991.81;5024402;28;20022;-73
2023/05/01 02:07:45;;;;;;;6.60;5.72;;;;;;;11.14;57.61;94975.63;5024853;28;20091;-73
2023/05/01 02:10:12;;;;;;;6.28;5.40;;;;;;;11.09;57.61;94967.91;5024253;28;20087;-74
2023/05/01 02:12:38;;;;;;;7.10;5.97;;;;;;;11.12;57.81;94971.75;5023617;28;20044;-74
2023/05/01 02:15:05;;;;;;;6.72;5.63;;;;;;;10.88;58.73;94974.03;5023919;28;20474;-73
2023/05/01 02:17:31;;;;;;;6.57;5.35;;;;;;;10.87;58.51;94962.28;5023183;28;20121;-73
2023/05/01 02:19:57;;;;;;;6.05;5.38;;;;;;;10.95;58.29;94976.56;5025064;28;20112;-74
2023/05/01 02:22:27;;;;;;;6.18;5.57;;;;;;;10.98;57.98;94969.44;5025056;28;20064;-74
2023/05/01 02:24:54;;;;;;;8.23;6.03;;;;;;;10.99;58.09;94974.50;5023252;28;20411;-74
2023/05/01 02:27:22;;;;;;;7.20;5.60;;;;;;;11.00;57.73;94972.50;5025528;28;20058;-74
2023/05/01 02:29:48;;;;;;;7.90;5.95;;;;;;;10.99;57.84;94974.50;5024135;28;20091;-73
2023/05/01 02:32:13;;;;;;;7.53;5.57;;;;;;;10.99;57.63;94979.22;5023660;28;20511;-73
2023/05/01 02:34:39;;;;;;;8.20;6.07;;;;;;;10.99;57.82;94976.47;5024433;28;20475;-73
2023/05/01 02:37:06;;;;;;;6.22;5.55;;;;;;;10.94;57.97;94982.53;5023559;28;20170;-73
2023/05/01 02:39:32;;;;;;;6.15;5.55;;;;;;;10.93;58.07;94987.25;5023333;28;20030;-73
2023/05/01 02:41:58;;;;;;;8.82;6.22;;;;;;;10.86;58.13;94977.22;5023086;28;20029;-73
2023/05/01 02:44:24;;;;;;;6.18;5.40;;;;;;;10.92;58.29;94984.94;5025192;28;20103;-73
2023/05/01 02:46:51;;;;;;;7.20;5.85;;;;;;;10.88;58.26;94985.03;5022861;28;20071;-73
2023/05/01 02:49:17;;;;;;;8.35;6.28;;;;;;;10.85;58.00;94983.94;5023562;28;21046;-73
2023/05/01 02:51:44;;;;;;;9.10;6.13;;;;;;;10.82;57.84;94982.06;5022729;28;20036;-73
2023/05/01 02:54:11;;;;;;;9.60;6.70;;;;;;;10.79;58.19;94987.69;5023360;28;20496;-74
2023/05/01 02:56:37;;;;;;;6.78;6.05;;;;;;;10.78;58.15;94986.91;5022893;28;20055;-74
2023/05/01 02:59:02;;;;;;;8.80;5.70;;;;;;;10.78;57.84;94994.38;5023250;28;20467;-74
2023/05/01 03:01:28;;;;;;;9.20;6.03;;;;;;;10.74;57.83;94991.72;5023010;28;20133;-74
2023/05/01 03:03:54;;;;;;;7.38;6.45;;;;;;;10.73;58.01;94994.94;5023707;28;20068;-73
2023/05/01 03:06:19;;;;;;;8.63;5.97;;;;;;;10.71;58.03;94991.81;5024546;28;20040;-73
2023/05/01 03:08:46;;;;;;;10.18;7.57;;;;;;;10.66;58.79;94984.09;5024123;28;20049;-73
2023/05/01 03:11:11;;;;;;;9.98;7.00;;;;;;;10.62;58.42;94989.72;5026137;28;20480;-73
2023/05/01 03:13:37;;;;;;;9.25;7.25;;;;;;;10.58;58.29;94994.53;5023957;28;20026;-73
2023/05/01 03:16:03;;;;;;;8.88;6.43;;;;;;;10.55;57.98;95000.91;5030480;28;20053;-73
2023/05/01 03:18:28;;;;;;;7.70;6.90;;;;;;;10.53;57.80;94997.81;5028908;28;20025;-73
2023/05/01 03:20:55;;;;;;;8.43;6.88;;;;;;;10.47;58.73;95005.81;5029666;28;20045;-75
2023/05/01 03:23:22;;;;;;;8.60;7.28;;;;;;;10.47;58.61;94997.59;5034398;28;20433;-73
2023/05/01 03:25:48;;;;;;;10.77;7.68;;;;;;;10.43;59.39;94998.88;5029137;28;20061;-73
2023/05/01 03:28:13;;;;;;;12.05;8.15;;;;;;;10.43;59.63;95007.13;5031068;28;20120;-74
2023/05/01 03:30:39;;;;;;;12.85;8.88;;;;;;;10.39;59.95;95001.75;5028756;28;20473;-73
2023/05/01 03:33:04;;;;;;;11.80;8.27;;;;;;;10.32;59.95;94999.97;5030090;28;20435;-73
2023/05/01 03:35:30;;;;;;;11.65;8.48;;;;;;;10.32;59.88;95004.66;5030187;28;20032;-75
2023/05/01 03:37:55;;;;;;;15.20;9.30;;;;;;;10.28;59.97;95013.00;5031101;28;20087;-73
2023/05/01 03:40:20;;;;;;;12.00;8.80;;;;;;;10.27;60.20;95018.94;5029188;28;20028;-74
2023/05/01 03:42:46;;;;;;;12.63;8.90;;;;;;;10.24;59.95;95017.81;5030445;28;20018;-73
2023/05/01 03:45:11;;;;;;;12.75;8.60;;;;;;;10.21;59.93;95010.44;5030739;28;20033;-74
2023/05/01 03:47:37;;;;;;;12.88;9.18;;;;;;;10.20;60.13;95010.84;5012388;28;20116;-75
2023/05/01 03:50:03;;;;;;;9.73;7.95;;;;;;;10.17;59.98;95025.47;5031138;28;20025;-74
2023/05/01 03:52:28;;;;;;;12.18;9.57;;;;;;;10.16;59.94;95032.16;5029979;28;20036;-75
2023/05/01 03:54:53;;;;;;;11.38;9.05;;;;;;;10.15;60.30;95033.34;5031346;28;20801;-74
2023/05/01 03:57:28;;;;;;;12.90;9.27;;;;;;;10.13;60.03;95027.50;5030211;28;20014;-75
2023/05/01 03:59:53;;;;;;;11.55;8.63;;;;;;;10.10;60.03;95032.69;5029303;28;20036;-74
2023/05/01 04:02:19;;;;;;;13.07;8.50;;;;;;;10.01;59.97;95035.25;5029274;28;20021;-74
2023/05/01 04:04:44;;;;;;;10.88;8.82;;;;;;;9.97;60.31;95042.03;5028492;28;20480;-73
2023/05/01 04:07:10;;;;;;;12.02;8.07;;;;;;;9.88;60.54;95048.16;5013165;28;20025;-72
2023/05/01 04:09:36;;;;;;;8.85;7.95;;;;;;;9.87;60.58;95043.09;5028428;28;20136;-73
2023/05/01 04:12:01;;;;;;;11.45;8.15;;;;;;;9.85;61.02;95035.25;5029491;28;20035;-73
2023/05/01 04:14:27;;;;;;;10.93;7.60;;;;;;;9.89;61.29;95040.66;5030056;28;20048;-73
2023/05/01 04:16:53;;;;;;;8.90;7.95;;;;;;;9.87;62.01;95041.13;5033930;28;20029;-74
2023/05/01 04:19:20;;;;;;;10.95;7.85;;;;;;;9.79;61.99;95035.00;5029449;28;20506;-73
2023/05/01 04:21:46;;;;;;;10.13;7.40;;;;;;;9.66;62.52;95041.63;5030010;28;20109;-73
2023/05/01 04:24:12;;;;;;;12.52;8.70;;;;;;;9.28;64.37;95040.09;5030823;28;20112;-73
2023/05/01 04:26:37;;;;;;;11.27;9.23;;;;;;;9.46;64.12;95042.47;5025835;28;20396;-73
2023/05/01 04:29:03;;;;;;;10.07;8.10;;;;;;;9.65;63.47;95048.31;5027615;28;20373;-74
2023/05/01 04:31:28;;;;;;;11.38;7.80;;;;;;;9.73;63.30;95052.41;5025544;28;20030;-74
2023/05/01 04:33:54;;;;;;;9.98;8.40;;;;;;;9.80;63.31;95055.75;5027864;28;20111;-74
2023/05/01 04:36:20;;;;;;;8.82;7.55;;;;;;;9.90;63.24;95053.97;5027480;28;20612;-74
2023/05/01 04:38:45;;;;;;;9.75;7.75;;;;;;;9.91;62.92;95046.50;5025552;28;20021;-74
2023/05/01 04:41:11;;;;;;;11.70;8.85;;;;;;;9.91;63.02;95044.53;5027285;28;20025;-74
2023/05/01 04:43:36;;;;;;;11.93;8.57;;;;;;;10.00;62.72;95050.19;5026370;28;20025;-74
2023/05/01 04:46:03;;;;;;;10.23;8.30;;;;;;;10.10;62.70;95051.13;5027412;28;20022;-75
2023/05/01 04:48:28;;;;;;;11.20;9.25;;;;;;;10.21;62.28;95046.16;5024966;28;20043;-74
2023/05/01 04:50:54;;;;;;;9.57;8.57;;;;;;;10.29;62.56;95055.75;5026027;28;20037;-74
2023/05/01 04:53:19;;;;;;;8.98;8.02;;;;;;;10.41;62.15;95057.03;5026292;28;20025;-74
2023/05/01 04:55:45;;;;;;;10.88;9.25;;;;;;;10.52;61.66;95049.28;5026874;28;20021;-74
2023/05/01 04:58:10;;;;;;;10.20;8.43;;;;;;;10.59;61.66;95053.81;5026889;28;20440;-73
2023/05/01 05:00:35;;;;;;;9.45;8.00;;;;;;;10.70;61.52;95054.28;5026191;28;20497;-74
2023/05/01 05:03:01;;;;;;;9.15;8.25;;;;;;;10.76;61.49;95055.31;5025468;28;20279;-74
2023/05/01 05:05:26;;;;;;;11.23;8.55;;;;;;;10.88;61.31;95067.53;5026102;28;20456;-74
2023/05/01 05:07:52;;;;;;;10.68;9.15;;;;;;;10.94;61.38;95065.81;5026702;28;20492;-74
2023/05/01 05:10:17;;;;;;;12.40;10.60;;;;;;;11.04;60.96;95077.72;5028004;28;20034;-73
2023/05/01 05:12:42;;;;;;;10.38;8.93;;;;;;;11.10;60.57;95067.72;5025357;28;20029;-73
2023/05/01 05:15:08;;;;;;;10.20;8.98;;;;;;;11.19;60.63;95076.13;5026152;28;20160;-73
2023/05/01 05:17:33;;;;;;;11.90;9.48;;;;;;;11.26;59.94;95078.66;5026376;28;20451;-74
2023/05/01 05:19:59;;;;;;;14.32;9.73;;;;;;;11.31;60.24;95080.09;5025150;28;20151;-73
2023/05/01 05:22:24;;;;;;;13.85;10.63;;;;;;;11.39;59.90;95087.69;5026931;28;20029;-73
2023/05/01 05:25:02;;;;;;;14.18;11.10;;;;;;;11.48;59.85;95091.78;5026488;28;20108;-73
2023/05/01 05:27:28;;;;;;;16.67;12.20;;;;;;;11.52;60.00;95097.94;5009002;28;20061;-74
2023/05/01 05:29:53;;;;;;;13.40;11.15;;;;;;;11.58;59.87;95093.44;5025043;28;20115;-75
2023/05/01 05:32:19;;;;;;;14.90;12.05;;;;;;;11.66;59.68;95092.03;5025659;28;20239;-75
2023/05/01 05:34:44;;;;;;;15.43;11.70;;;;;;;11.71;59.44;95099.75;5026071;28;20034;-73
2023/05/01 05:37:10;;;;;;;13.30;11.18;;;;;;;11.78;59.22;95098.75;5024793;28;20860;-73
2023/05/01 05:39:36;;;;;;;13.25;11.20;;;;;;;11.86;58.97;95100.09;5025294;28;20526;-73
2023/05/01 05:42:02;;;;;;;15.10;11.80;;;;;;;11.93;58.63;95095.16;5024754;28;20025;-75
2023/05/01 05:44:27;;;;;;;17.13;14.80;;;;;;;11.95;58.67;95098.22;5025295;28;20053;-74
2023/05/01 05:46:53;;;;;;;19.60;12.80;;;;;;;11.87;59.00;95096.91;5026026;28;20111;-74
2023/05/01 05:49:18;;;;;;;12.95;11.63;;;;;;;12.01;58.66;95103.19;5023990;28;20033;-74
2023/05/01 05:51:44;;;;;;;13.38;9.55;;;;;;;12.06;58.44;95102.63;5025497;28;20043;-74
2023/05/01 05:54:09;;;;;;;12.82;9.52;;;;;;;12.10;58.62;95106.03;5025469;28;20036;-75
2023/05/01 05:56:34;;;;;;;11.68;9.45;;;;;;;12.19;58.38;95098.63;5025531;28;20027;-74
2023/05/01 05:59:02;;;;;;;11.48;9.95;;;;;;;12.22;58.44;95102.50;5025692;28;20385;-76
2023/05/01 06:01:27;;;;;;;12.73;10.30;;;;;;;12.30;58.13;95105.78;5024765;28;20053;-75
2023/05/01 06:03:53;;;;;;;11.95;9.93;;;;;;;12.37;58.24;95102.78;5027967;28;20040;-75
2023/05/01 06:06:18;;;;;;;10.05;9.02;;;;;;;12.39;58.19;95103.91;5028134;28;20049;-75
2023/05/01 06:08:45;;;;;;;14.20;9.57;;;;;;;12.47;58.00;95110.72;5024320;28;20036;-74
2023/05/01 06:11:10;;;;;;;11.80;8.95;;;;;;;12.55;57.68;95110.47;5024732;28;20465;-73
2023/05/01 06:13:36;;;;;;;13.13;9.65;;;;;;;12.63;57.81;95109.78;5024163;28;20030;-74
2023/05/01 06:16:02;;;;;;;17.17;10.32;;;;;;;12.59;58.29;95116.63;5025381;28;20112;-74
2023/05/01 06:18:29;;;;;;;10.93;9.73;;;;;;;12.76;57.79;95120.78;5024797;28;20037;-74
2023/05/01 06:20:54;;;;;;;11.52;9.27;;;;;;;12.85;57.43;95117.34;5025168;28;20461;-74
2023/05/01 06:23:19;;;;;;;11.02;8.43;;;;;;;12.94;57.49;95123.69;5023390;28;20049;-74
2023/05/01 06:25:47;;;;;;;10.80;8.98;;;;;;;13.05;57.27;95117.78;5026637;28;20018;-74
2023/05/01 06:28:12;;;;;;;12.63;8.63;;;;;;;13.13;57.08;95121.06;5024492;28;20033;-73
2023/05/01 06:30:38;;;;;;;11.02;8.55;;;;;;;13.22;56.86;95105.38;5025421;28;20014;-75
2023/05/01 06:33:03;;;;;;;9.85;8.48;;;;;;;13.33;56.75;95118.78;5023281;28;20022;-74
2023/05/01 06:35:29;;;;;;;10.80;8.85;;;;;;;13.40;56.80;95117.75;5025062;28;20025;-77
2023/05/01 06:37:54;;;;;;;9.65;8.38;;;;;;;13.48;56.63;95111.53;5023716;28;20376;-75
2023/05/01 06:40:20;;;;;;;10.20;8.25;;;;;;;13.60;56.50;95117.44;5022976;28;20105;-75
2023/05/01 06:42:45;;;;;;;10.40;8.38;;;;;;;13.67;56.35;95123.44;5025265;28;20108;-74
2023/05/01 06:45:11;;;;;;;12.93;8.40;;;;;;;13.69;56.49;95118.22;5024100;28;20057;-76
2023/05/01 06:47:36;;;;;;;10.82;8.85;;;;;;;13.76;56.32;95117.19;5025478;28;20056;-74
2023/05/01 06:50:06;;;;;;;9.90;8.70;;;;;;;13.77;56.41;95111.22;5023564;28;20040;-75
2023/05/01 06:52:32;;;;;;;9.98;8.50;;;;;;;13.84;55.79;95118.47;5006884;28;20433;-76
2023/05/01 06:54:57;;;;;;;11.55;7.82;;;;;;;13.93;55.46;95117.72;5024441;28;20028;-74
2023/05/01 06:57:23;;;;;;;8.38;7.35;;;;;;;14.01;55.96;95125.28;5026485;28;20025;-75
2023/05/01 06:59:48;;;;;;;9.98;7.82;;;;;;;14.20;55.56;95117.06;5028342;28;20064;-75
2023/05/01 07:02:14;;;;;;;10.02;8.05;;;;;;;14.34;55.39;95120.03;5023980;28;20468;-75
2023/05/01 07:04:39;;;;;;;9.80;8.05;;;;;;;14.46;55.30;95121.13;5024864;28;20514;-76
2023/05/01 07:07:05;;;;;;;9.75;7.05;;;;;;;14.57;54.77;95124.25;5022554;28;20064;-76
2023/05/01 07:09:30;;;;;;;11.15;7.45;;;;;;;14.73;54.14;95125.97;5025045;28;20021;-76
2023/05/01 07:11:57;;;;;;;8.75;7.78;;;;;;;14.87;53.55;95125.38;5023863;28;20108;-75
2023/05/01 07:14:22;;;;;;;9.30;7.78;;;;;;;14.94;53.50;95131.81;5023250;28;20036;-74
2023/05/01 07:16:48;;;;;;;10.75;8.13;;;;;;;15.06;52.99;95128.91;5024643;28;20021;-77
2023/05/01 07:19:13;;;;;;;9.18;7.80;;;;;;;15.14;52.35;95135.69;5023614;28;20116;-76
2023/05/01 07:21:40;;;;;;;9.60;7.07;;;;;;;15.24;51.84;95132.91;5024946;28;20022;-75
2023/05/01 07:24:05;;;;;;;8.30;6.55;;;;;;;15.41;51.86;95136.88;5005843;28;20400;-76
2023/05/01 07:26:31;;;;;;;8.25;6.80;;;;;;;15.47;52.12;95137.81;5023622;28;20048;-76
2023/05/01 07:28:56;;;;;;;12.48;7.40;;;;;;;15.65;51.37;95140.59;5023810;28;20456;-77
2023/05/01 07:31:22;;;;;;;8.65;6.72;;;;;;;15.80;51.02;95135.16;5029900;28;20072;-77
2023/05/01 07:33:47;;;;;;;7.63;6.70;;;;;;;15.93;50.52;95134.94;5023188;28;20022;-77
2023/05/01 07:36:13;;;;;;;8.48;7.20;;;;;;;15.99;50.35;95137.84;5022598;28;20022;-76
2023/05/01 07:38:39;;;;;;;9.68;6.97;;;;;;;16.01;49.99;95133.41;5023190;28;20510;-76
2023/05/01 07:41:05;;;;;;;12.23;6.57;;;;;;;16.19;49.52;95138.09;5005718;28;20507;-76
2023/05/01 07:43:30;;;;;;;7.15;6.32;;;;;;;16.30;49.26;95127.28;5025215;28;20548;-75
2023/05/01 07:45:57;;;;;;;10.13;7.35;;;;;;;16.32;49.38;95127.56;5022258;28;20087;-75
2023/05/01 07:48:23;;;;;;;6.95;6.28;;;;;;;16.38;49.81;95128.44;5006651;28;20041;-76
2023/05/01 07:50:49;;;;;;;7.57;6.07;;;;;;;16.50;49.36;95129.47;5006015;28;20488;-75
2023/05/01 07:53:15;;;;;;;9.15;6.65;;;;;;;16.63;49.09;95124.47;5012706;28;20488;-77
2023/05/01 07:55:40;;;;;;;11.13;7.05;;;;;;;16.77;48.95;95122.25;5024437;28;20101;-77
2023/05/01 07:58:06;;;;;;;7.80;6.35;;;;;;;16.94;48.12;95126.91;5023499;28;20083;-76
2023/05/01 08:00:31;;;;;;;8.93;6.25;;;;;;;17.12;47.34;95126.00;5024338;28;20033;-76
2023/05/01 08:02:56;;;;;;;7.32;5.70;;;;;;;17.33;46.55;95124.13;5008417;28;20460;-76
2023/05/01 08:05:22;;;;;;;7.38;6.65;;;;;;;17.44;46.18;95118.03;5027938;28;20029;-76
2023/05/01 08:07:47;;;;;;;10.10;6.40;;;;;;;17.56;46.21;95122.53;5025768;28;20484;-77
2023/05/01 08:10:13;;;;;;;9.43;6.40;;;;;;;17.62;45.99;95123.41;5026507;28;20028;-75
2023/05/01 08:12:39;;;;;;;7.72;5.90;;;;;;;17.80;45.85;95125.25;5025834;28;20409;-76
2023/05/01 08:15:05;;;;;;;6.97;5.75;;;;;;;17.94;45.34;95126.47;5026110;28;20492;-78
2023/05/01 08:17:31;;;;;;;8.55;6.00;;;;;;;18.13;44.63;95129.84;5026499;28;20285;-77
2023/05/01 08:19:56;;;;;;;6.15;5.55;;;;;;;18.22;44.59;95121.38;5025575;28;20120;-74
2023/05/01 08:22:22;;;;;;;6.25;5.25;;;;;;;18.39;43.44;95125.16;5027478;28;20148;-76
2023/05/01 08:24:49;;;;;;;6.65;5.53;;;;;;;18.58;42.63;95122.91;5025611;28;20025;-74
2023/05/01 08:27:15;;;;;;;7.30;4.70;;;;;;;18.57;41.97;95110.22;5026501;28;20049;-74
2023/05/01 08:29:40;;;;;;;9.82;4.57;;;;;;;18.75;41.30;95120.38;5027245;28;20464;-76
2023/05/01 08:32:06;;;;;;;7.80;5.13;;;;;;;18.79;41.23;95118.16;5026019;28;20033;-77
2023/05/01 08:34:31;;;;;;;5.35;4.75;;;;;;;18.83;42.11;95121.50;5025769;28;20389;-74
2023/05/01 08:36:58;;;;;;;7.68;4.25;;;;;;;19.13;40.68;95113.00;5030495;28;20029;-76
2023/05/01 08:39:23;;;;;;;6.30;4.50;;;;;;;19.29;40.21;95118.00;5026369;28;20243;-75
2023/05/01 08:41:49;;;;;;;6.53;5.00;;;;;;;19.44;40.59;95117.91;5025200;28;20369;-75
2023/05/01 08:44:15;;;;;;;6.32;3.97;;;;;;;19.63;39.31;95108.00;5009438;28;20026;-77
2023/05/01 08:46:52;;;;;;;7.35;4.28;;;;;;;19.84;39.09;95109.47;5029186;28;20040;-77
2023/05/01 08:49:18;;;;;;;5.30;3.65;;;;;;;20.02;38.36;95113.16;5009230;28;20056;-76
2023/05/01 08:51:46;;;;;;;4.22;3.47;;;;;;;20.19;37.67;95116.84;5025384;28;20396;-77
2023/05/01 08:54:13;;;;;;;4.72;3.80;;;;;;;20.44;37.25;95109.66;5025524;28;20029;-77
2023/05/01 08:56:39;;;;;;;4.30;3.38;;;;;;;20.66;36.58;95109.06;5026862;28;20044;-75
2023/05/01 08:59:08;;;;;;;5.80;4.22;;;;;;;20.68;36.57;95104.50;5024730;28;20496;-76
2023/05/01 09:01:34;;;;;;;8.05;4.65;;;;;;;20.95;36.65;95105.16;5026789;28;20049;-76
2023/05/01 09:04:02;;;;;;;3.90;3.40;;;;;;;21.20;35.49;95106.25;5007869;28;20491;-75
2023/05/01 09:06:31;;;;;;;6.50;3.90;;;;;;;21.37;35.40;95111.94;5025676;28;20056;-76
2023/05/01 09:08:57;;;;;;;4.90;3.55;;;;;;;21.47;34.63;95100.03;5026501;28;20519;-76
2023/05/01 09:11:23;;;;;;;4.80;3.10;;;;;;;21.62;34.34;95099.81;5024854;28;20021;-75
2023/05/01 09:13:49;;;;;;;6.35;3.80;;;;;;;21.94;34.42;95108.75;5025090;28;20071;-75
2023/05/01 09:16:15;;;;;;;3.90;3.10;;;;;;;22.11;33.74;95105.22;5025955;28;20117;-74
2023/05/01 09:18:40;;;;;;;6.03;3.13;;;;;;;22.10;33.78;95106.50;5008606;28;20121;-75
2023/05/01 09:21:06;;;;;;;4.00;3.10;;;;;;;22.35;33.67;95104.69;5024436;28;20060;-75
2023/05/01 09:23:32;;;;;;;7.03;3.22;;;;;;;22.52;33.07;95105.44;5026545;28;20021;-76
2023/05/01 09:25:58;;;;;;;5.30;3.67;;;;;;;22.89;32.99;95109.97;5024824;28;20491;-78
2023/05/01 09:28:46;;;;;;;4.13;3.03;;;;;;;23.04;32.99;95108.38;5025077;28;20033;-75
2023/05/01 09:31:31;;;;;;;5.57;3.80;;;;;;;23.36;33.01;95107.25;5026426;28;20030;-75
2023/05/01 09:34:01;;;;;;;4.97;3.60;;;;;;;23.64;32.30;95112.75;5024577;28;20025;-79
2023/05/01 09:36:29;;;;;;;3.72;2.70;;;;;;;23.85;31.93;95109.00;5008834;28;20414;-80
2023/05/01 09:38:56;;;;;;;6.80;3.45;;;;;;;24.07;31.69;95108.09;5028691;28;20033;-79
2023/05/01 09:41:22;;;;;;;3.90;3.20;;;;;;;24.29;30.93;95106.41;5020995;28;20032;-77
2023/05/01 09:43:52;;;;;;;4.53;2.92;;;;;;;24.30;30.24;95113.53;5025281;28;20025;-78
2023/05/01 09:46:17;;;;;;;4.05;2.70;;;;;;;24.46;29.67;95109.09;5024408;28;20109;-78
2023/05/01 09:48:59;;;;;;;4.38;2.50;;;;;;;24.83;29.44;95108.44;5008449;28;20026;-84
2023/05/01 09:51:32;;;;;;;2.85;2.20;;;;;;;24.66;28.56;95116.28;5024112;28;20036;-80
2023/05/01 09:53:58;;;;;;;;;;;;;;;24.76;28.24;95104.19;5025709;28;20028;-79
2023/05/01 09:56:28;;;;;;;1.90;1.50;;;;;;;25.00;28.69;95106.22;5025462;28;19913;-81
2023/05/01 09:58:56;;;;;;;3.05;2.50;;;;;;;25.25;28.69;95098.56;5024153;28;20087;-80
2023/05/01 10:01:38;;;;;;;3.90;2.25;;;;;;;25.19;28.88;95097.88;5007924;28;20069;-77
2023/05/01 10:04:03;;;;;;;3.13;2.47;;;;;;;24.98;28.88;95096.78;5023627;28;20098;-78
2023/05/01 10:06:29;;;;;;;4.10;2.80;;;;;;;25.08;28.47;95090.31;5024792;28;20025;-78
2023/05/01 10:08:54;;;;;;;3.40;2.92;;;;;;;24.88;28.48;95093.56;5006831;28;20033;-77
2023/05/01 10:11:21;;;;;;;4.75;2.80;;;;;;;24.98;28.31;95086.31;5024580;28;20026;-79
2023/05/01 10:14:10;;;;;;;4.65;2.60;;;;;;;24.90;29.19;95080.53;5023753;28;20025;-78
2023/05/01 10:16:37;;;;;;;6.95;2.83;;;;;;;25.04;29.28;95089.06;5024532;28;20033;-79
2023/05/01 10:19:03;;;;;;;3.25;2.55;;;;;;;25.38;28.93;95093.00;5024423;28;20488;-78
2023/05/01 10:21:32;;;;;;;4.43;2.85;;;;;;;25.54;29.23;95088.44;5006810;28;20036;-79
2023/05/01 10:23:59;;;;;;;3.15;2.60;;;;;;;25.57;29.17;95090.19;5025195;28;20049;-76
2023/05/01 10:26:25;;;;;;;3.50;2.60;;;;;;;25.60;28.66;95088.38;5023288;28;20057;-77
2023/05/01 10:28:51;;;;;;;3.70;2.40;;;;;;;25.74;29.16;95092.03;5024017;28;20056;-76
2023/05/01 10:31:17;;;;;;;5.90;3.00;;;;;;;25.56;28.89;95074.59;5023772;28;20453;-79
2023/05/01 10:33:43;;;;;;;3.72;2.70;;;;;;;25.47;28.85;95086.25;5031900;28;20021;-79
2023/05/01 10:36:14;;;;;;;4.50;2.30;;;;;;;25.78;28.49;95087.63;5027895;28;20034;-81
2023/05/01 10:38:44;;;;;;;2.75;2.20;;;;;;;25.56;28.36;95083.03;5006488;28;20053;-81
2023/05/01 10:41:10;;;;;;;3.35;2.22;;;;;;;25.85;27.89;95083.44;5024362;28;20492;-78
2023/05/01 10:43:35;;;;;;;3.00;2.15;;;;;;;26.04;28.25;95081.34;5023246;28;20032;-76
2023/05/01 10:46:07;;;;;;;3.13;1.92;;;;;;;26.31;27.20;95082.19;5027198;28;20037;-76
2023/05/01 10:48:38;;;;;;;3.55;1.52;;;;;;;26.35;25.61;95093.13;5023518;28;20128;-74
2023/05/01 10:51:11;;;;;;;3.42;1.90;;;;;;;26.39;26.92;95082.31;5024477;28;20033;-83
2023/05/01 10:53:37;;;;;;;3.25;1.88;;;;;;;26.35;25.32;95077.00;5025697;28;20029;-78
2023/05/01 10:56:04;;;;;;;3.15;1.58;;;;;;;26.54;25.24;95071.31;5006311;28;20029;-82
2023/05/01 10:58:36;;;;;;;5.32;1.85;;;;;;;26.82;26.05;95084.13;5023918;28;20021;-77
2023/05/01 11:01:26;;;;;;;1.65;1.40;;;;;;;27.02;25.15;95080.69;5022179;28;20061;-77
2023/05/01 11:03:52;;;;;;;3.15;1.40;;;;;;;26.99;24.41;95073.28;5024327;28;20033;-81
2023/05/01 11:06:17;;;;;;;3.15;1.60;;;;;;;27.04;24.65;95069.59;5007203;28;20088;-80
2023/05/01 11:08:44;;;;;;;2.13;1.58;;;;;;;26.90;24.77;95077.31;5023024;28;20017;-80
2023/05/01 11:11:18;;;;;;;3.38;2.05;;;;;;;26.90;25.31;95077.31;5023439;28;20029;-77
2023/05/01 11:14:00;;;;;;;2.75;1.92;;;;;;;26.85;25.26;95086.63;5024525;28;20444;-81
2023/05/01 11:16:38;;;;;;;3.30;1.60;;;;;;;26.54;25.03;95070.53;5026211;28;20036;-79
2023/05/01 11:19:22;;;;;;;1.95;1.50;;;;;;;26.73;24.25;95072.00;5024307;28;20032;-80
2023/05/01 11:21:48;;;;;;;3.40;1.80;;;;;;;26.93;24.55;95072.63;5022402;28;20116;-82
2023/05/01 11:24:13;;;;;;;2.00;1.50;;;;;;;27.03;24.31;95073.72;5025048;28;20044;-79
2023/05/01 11:26:41;;;;;;;4.78;2.30;;;;;;;27.17;25.12;95069.59;5025394;28;20025;-79
2023/05/01 11:29:07;;;;;;;3.33;1.85;;;;;;;27.44;24.10;95066.75;5033506;28;20076;-79
2023/05/01 11:31:34;;;;;;;5.55;1.80;;;;;;;28.04;24.75;95069.53;5006299;28;20034;-79
2023/05/01 11:34:00;;;;;;;2.00;1.60;;;;;;;28.40;22.95;95068.94;5024464;28;20036;-79